Time;durP1;ratioP1;P1;durP2;ratioP2;P2;SDS_P1;SDS_P2;PMS_P1;PMS_P2;Temp;Humidity;BMP_temperature;BMP_pressure;BME280_temperature;BME280_humidity;BME280_pressure;Samples;Min_cycle;Max_cycle;Signal;HPM_P1;HPM_P2
2022/05/28 00:02:13;;;;;;;7.68;1.85;;;8.30;94.10;;;;;;5098377;28;20050;-75
2022/05/28 00:04:38;;;;;;;9.02;1.88;;;8.40;94.10;;;;;;5104957;28;20111;-75
2022/05/28 00:07:05;;;;;;;9.40;2.00;;;8.40;94.30;;;;;;5097496;28;20098;-75
2022/05/28 00:09:31;;;;;;;8.32;1.92;;;8.30;94.50;;;;;;5101607;28;20391;-75
2022/05/28 00:11:57;;;;;;;13.43;2.17;;;8.30;94.70;;;;;;5105198;28;20027;-75
2022/05/28 00:14:22;;;;;;;8.38;1.45;;;8.20;94.80;;;;;;5105947;28;20430;-75
2022/05/28 00:16:48;;;;;;;16.10;2.20;;;8.30;95.00;;;;;;5099326;28;20040;-75
2022/05/28 00:19:13;;;;;;;14.38;2.10;;;8.20;95.00;;;;;;5095829;28;20032;-75
2022/05/28 00:21:39;;;;;;;10.05;1.90;;;8.20;95.10;;;;;;5103854;28;20456;-75
2022/05/28 00:24:05;;;;;;;7.28;1.58;;;8.10;94.80;;;;;;5122722;27;20035;-75
2022/05/28 00:26:30;;;;;;;4.00;1.45;;;8.10;94.80;;;;;;5101013;28;20471;-75
2022/05/28 00:28:56;;;;;;;11.70;1.75;;;8.10;94.80;;;;;;5097600;28;20020;-75
2022/05/28 00:31:22;;;;;;;10.38;1.85;;;8.20;94.80;;;;;;5101942;28;20565;-75
2022/05/28 00:33:47;;;;;;;5.82;1.75;;;8.20;94.80;;;;;;5097493;27;20020;-75
2022/05/28 00:36:14;;;;;;;8.45;1.67;;;8.20;94.80;;;;;;5098976;28;20498;-75
2022/05/28 00:38:41;;;;;;;9.05;1.75;;;8.10;94.80;;;;;;5108236;28;20024;-75
2022/05/28 00:41:08;;;;;;;11.80;2.33;;;8.10;94.90;;;;;;5107376;28;20031;-75
2022/05/28 00:43:34;;;;;;;11.93;1.85;;;8.10;94.90;;;;;;5102864;28;20025;-75
2022/05/28 00:46:07;;;;;;;5.90;1.38;;;8.00;95.00;;;;;;5103656;28;20039;-75
2022/05/28 00:48:37;;;;;;;8.38;2.00;;;8.10;95.10;;;;;;5108805;28;20028;-75
2022/05/28 00:51:14;;;;;;;12.15;1.60;;;8.00;95.10;;;;;;5107499;28;20028;-75
2022/05/28 00:53:41;;;;;;;11.35;2.13;;;8.00;95.30;;;;;;5107185;28;20441;-75
2022/05/28 00:56:06;;;;;;;9.30;1.83;;;7.90;95.40;;;;;;5104920;28;20131;-75
2022/05/28 00:58:33;;;;;;;11.07;2.40;;;7.90;95.40;;;;;;5103983;28;20098;-75
2022/05/28 01:00:59;;;;;;;14.57;1.88;;;7.90;95.50;;;;;;5099383;28;20090;-75
2022/05/28 01:03:35;;;;;;;10.45;2.20;;;7.90;95.50;;;;;;5106742;28;20032;-75
2022/05/28 01:06:15;;;;;;;8.55;2.13;;;7.80;95.50;;;;;;5107846;28;20039;-75
2022/05/28 01:08:49;;;;;;;15.57;2.33;;;7.90;95.50;;;;;;5107329;28;20110;-75
2022/05/28 01:11:33;;;;;;;11.32;1.95;;;7.90;95.50;;;;;;5102941;28;20032;-75
2022/05/28 01:14:21;;;;;;;5.95;1.65;;;7.90;95.20;;;;;;5099685;28;20070;-75
2022/05/28 01:16:58;;;;;;;6.00;1.83;;;7.90;95.20;;;;;;5099891;28;20028;-74
2022/05/28 01:19:55;;;;;;;7.40;1.92;;;7.90;95.10;;;;;;5103971;28;20037;-75
2022/05/28 01:22:48;;;;;;;8.98;1.80;;;8.00;94.80;;;;;;5104531;28;20034;-75
2022/05/28 01:25:31;;;;;;;9.65;1.83;;;8.00;94.60;;;;;;5106654;28;20042;-75
2022/05/28 01:28:04;;;;;;;10.48;2.35;;;8.00;94.30;;;;;;5107526;28;20035;-75
2022/05/28 01:30:31;;;;;;;8.32;1.60;;;8.10;94.20;;;;;;5112181;28;20028;-75
2022/05/28 01:32:58;;;;;;;10.30;2.22;;;8.10;93.80;;;;;;5106011;27;20046;-75
2022/05/28 01:35:27;;;;;;;4.45;1.33;;;8.10;93.70;;;;;;5102927;28;20125;-75
2022/05/28 01:37:54;;;;;;;6.75;1.60;;;8.10;93.40;;;;;;5106861;28;20107;-75
2022/05/28 01:40:20;;;;;;;13.15;2.08;;;8.10;93.20;;;;;;5107598;28;20063;-74
2022/05/28 01:42:51;;;;;;;5.90;1.83;;;8.10;93.30;;;;;;5107463;28;20513;-75
2022/05/28 01:45:20;;;;;;;10.30;1.63;;;8.00;93.00;;;;;;5101513;28;20039;-75
2022/05/28 01:47:49;;;;;;;6.00;1.75;;;8.10;93.00;;;;;;5105632;27;20063;-75
2022/05/28 01:50:17;;;;;;;9.95;1.77;;;8.10;92.70;;;;;;5102784;28;20331;-75
2022/05/28 01:52:44;;;;;;;12.32;1.90;;;8.10;92.60;;;;;;5104895;28;20043;-75
2022/05/28 01:55:12;;;;;;;6.47;1.38;;;8.10;92.80;;;;;;5107505;28;20036;-76
2022/05/28 01:57:37;;;;;;;10.20;1.60;;;8.00;93.90;;;;;;5105938;28;20114;-76
2022/05/28 02:00:04;;;;;;;3.58;1.20;;;7.90;94.30;;;;;;5107413;28;20115;-76
2022/05/28 02:02:30;;;;;;;6.22;1.25;;;7.80;94.60;;;;;;5096030;28;20046;-75
2022/05/28 02:04:55;;;;;;;6.25;1.23;;;7.80;94.80;;;;;;5106556;28;20490;-75
2022/05/28 02:07:21;;;;;;;2.67;1.15;;;7.60;93.20;;;;;;5095255;28;20032;-75
2022/05/28 02:09:54;;;;;;;1.95;0.90;;;7.60;93.00;;;;;;5098201;28;20034;-75
2022/05/28 02:12:23;;;;;;;3.13;1.10;;;7.50;92.30;;;;;;5106875;28;20034;-75
2022/05/28 02:15:15;;;;;;;3.20;1.15;;;7.40;92.80;;;;;;5106784;28;20058;-75
2022/05/28 02:17:53;;;;;;;1.63;0.68;;;7.40;92.70;;;;;;5102052;28;20040;-75
2022/05/28 02:20:51;;;;;;;2.83;0.70;;;7.30;92.50;;;;;;5105315;28;20058;-75
2022/05/28 02:23:31;;;;;;;5.65;1.10;;;7.30;92.90;;;;;;5106742;28;20053;-75
2022/05/28 02:26:12;;;;;;;3.72;0.80;;;7.30;93.10;;;;;;5096683;28;20169;-75
2022/05/28 02:28:38;;;;;;;2.72;0.80;;;7.30;93.50;;;;;;5098004;28;20039;-75
2022/05/28 02:31:16;;;;;;;2.35;0.82;;;7.30;93.40;;;;;;5105580;28;20038;-75
2022/05/28 02:33:43;;;;;;;2.00;0.80;;;7.30;93.70;;;;;;5105206;28;20020;-75
2022/05/28 02:36:09;;;;;;;1.10;0.80;;;7.20;93.80;;;;;;5099743;28;20058;-76
2022/05/28 02:38:35;;;;;;;4.00;0.77;;;7.20;94.10;;;;;;5093601;28;20035;-76
2022/05/28 02:41:00;;;;;;;3.50;1.00;;;7.20;94.30;;;;;;5106240;28;20108;-75
2022/05/28 02:43:26;;;;;;;4.43;1.40;;;7.10;94.60;;;;;;5101533;28;20048;-76
2022/05/28 02:45:52;;;;;;;5.05;1.17;;;7.10;94.80;;;;;;5104947;28;20535;-75
2022/05/28 02:48:17;;;;;;;9.45;1.38;;;7.10;95.00;;;;;;5106105;28;20042;-75
2022/05/28 02:50:43;;;;;;;0.90;0.65;;;7.10;95.10;;;;;;5106385;28;20059;-75
2022/05/28 02:53:08;;;;;;;8.48;1.08;;;7.10;95.20;;;;;;5093663;28;20093;-75
2022/05/28 02:55:34;;;;;;;1.80;0.88;;;7.10;95.20;;;;;;5106140;28;20499;-75
2022/05/28 02:58:00;;;;;;;3.35;0.95;;;7.10;95.40;;;;;;5103357;28;20055;-75
2022/05/28 03:00:25;;;;;;;3.92;1.17;;;7.10;95.60;;;;;;5093165;28;20028;-75
2022/05/28 03:02:51;;;;;;;6.25;1.30;;;7.10;95.70;;;;;;5101548;28;20660;-75
2022/05/28 03:05:20;;;;;;;3.65;1.10;;;7.10;95.80;;;;;;5105917;28;20125;-75
2022/05/28 03:07:45;;;;;;;9.68;1.30;;;7.00;95.80;;;;;;5101219;28;20733;-75
2022/05/28 03:10:11;;;;;;;1.63;1.10;;;7.00;95.90;;;;;;5103285;28;20135;-76
2022/05/28 03:12:38;;;;;;;4.93;1.20;;;6.90;95.80;;;;;;5104351;28;20073;-75
2022/05/28 03:15:05;;;;;;;2.17;1.10;;;7.00;96.00;;;;;;5106671;28;20565;-75
2022/05/28 03:17:30;;;;;;;4.25;1.42;;;6.90;95.90;;;;;;5091815;28;20119;-75
2022/05/28 03:19:57;;;;;;;3.75;1.42;;;6.90;96.00;;;;;;5104278;28;20111;-75
2022/05/28 03:22:23;;;;;;;4.30;1.25;;;6.90;96.10;;;;;;5103362;28;20128;-75
2022/05/28 03:24:48;;;;;;;5.10;2.10;;;7.00;96.10;;;;;;5099903;28;20043;-75
2022/05/28 03:27:14;;;;;;;8.73;1.63;;;7.00;96.20;;;;;;5096233;28;20024;-75
2022/05/28 03:29:39;;;;;;;8.15;1.75;;;7.10;96.10;;;;;;5105881;28;20071;-75
2022/05/28 03:32:05;;;;;;;9.77;1.80;;;7.10;96.10;;;;;;5103891;28;20283;-76
2022/05/28 03:34:31;;;;;;;8.57;2.05;;;7.10;96.10;;;;;;5116067;28;20027;-75
2022/05/28 03:36:56;;;;;;;11.02;2.10;;;7.20;96.20;;;;;;5099939;28;20063;-75
2022/05/28 03:39:22;;;;;;;8.75;1.80;;;7.20;96.10;;;;;;5100636;28;20036;-75
2022/05/28 03:41:47;;;;;;;8.90;1.92;;;7.20;96.10;;;;;;5105931;28;20090;-75
2022/05/28 03:44:13;;;;;;;13.60;1.95;;;7.30;96.30;;;;;;5101778;28;20084;-75
2022/05/28 03:46:39;;;;;;;8.13;2.05;;;7.40;96.30;;;;;;5101600;28;20275;-75
2022/05/28 03:49:08;;;;;;;10.90;1.80;;;7.40;96.40;;;;;;5093076;28;20400;-76
2022/05/28 03:51:34;;;;;;;9.82;2.25;;;7.40;96.50;;;;;;5104373;28;20032;-75
2022/05/28 03:53:59;;;;;;;7.68;1.90;;;7.50;96.60;;;;;;5102051;28;20069;-76
2022/05/28 03:56:33;;;;;;;11.20;2.13;;;7.50;96.60;;;;;;5110163;28;20465;-76
2022/05/28 03:58:58;;;;;;;12.07;1.83;;;7.60;96.60;;;;;;5097429;28;20039;-76
2022/05/28 04:01:23;;;;;;;7.75;2.10;;;7.60;96.60;;;;;;5105817;28;20024;-76
2022/05/28 04:03:49;;;;;;;15.18;2.95;;;7.80;96.70;;;;;;5106695;28;20408;-76
2022/05/28 04:06:15;;;;;;;11.77;2.10;;;7.80;96.70;;;;;;5109584;28;20050;-76
2022/05/28 04:08:40;;;;;;;16.00;2.47;;;7.80;96.70;;;;;;5106043;28;20106;-76
2022/05/28 04:11:07;;;;;;;13.05;2.47;;;7.90;96.60;;;;;;5109342;28;20019;-76
2022/05/28 04:13:32;;;;;;;8.90;2.28;;;7.90;96.50;;;;;;5107788;28;20027;-76
2022/05/28 04:15:58;;;;;;;9.52;1.98;;;7.90;96.50;;;;;;5107836;28;20105;-75
2022/05/28 04:18:23;;;;;;;14.30;2.40;;;8.00;96.40;;;;;;5106270;28;20032;-71
2022/05/28 04:20:49;;;;;;;16.73;2.47;;;8.00;96.40;;;;;;5107569;28;20031;-72
2022/05/28 04:23:15;;;;;;;9.02;2.50;;;8.00;96.30;;;;;;5107582;28;20534;-72
2022/05/28 04:25:41;;;;;;;6.70;2.28;;;8.10;96.30;;;;;;5106873;28;20398;-72
2022/05/28 04:28:06;;;;;;;8.68;2.20;;;8.00;96.20;;;;;;5100918;28;20043;-72
2022/05/28 04:30:32;;;;;;;9.18;2.35;;;8.00;96.30;;;;;;5103412;28;20399;-73
2022/05/28 04:32:58;;;;;;;13.45;2.53;;;8.10;96.30;;;;;;5104153;27;20050;-72
2022/05/28 04:35:23;;;;;;;15.43;3.42;;;8.10;96.40;;;;;;5106870;28;20477;-72
2022/05/28 04:37:49;;;;;;;17.17;3.00;;;8.10;96.40;;;;;;5106719;27;20052;-72
2022/05/28 04:40:14;;;;;;;17.80;2.88;;;8.10;96.40;;;;;;5103680;28;20027;-72
2022/05/28 04:42:40;;;;;;;10.88;2.30;;;8.10;96.30;;;;;;5101433;28;20483;-73
2022/05/28 04:45:06;;;;;;;9.07;2.22;;;8.20;96.30;;;;;;5108536;28;20040;-72
2022/05/28 04:47:32;;;;;;;9.90;2.70;;;8.30;96.30;;;;;;5103277;28;20019;-73
2022/05/28 04:49:57;;;;;;;18.98;3.45;;;8.20;96.20;;;;;;5106014;28;20039;-73
2022/05/28 04:52:23;;;;;;;11.40;2.60;;;8.30;96.30;;;;;;5102407;28;20153;-72
2022/05/28 04:54:48;;;;;;;17.88;3.30;;;8.20;96.10;;;;;;5106274;28;20027;-73
2022/05/28 04:57:14;;;;;;;14.32;2.45;;;8.30;96.20;;;;;;5108105;28;20123;-72
2022/05/28 04:59:40;;;;;;;14.98;2.28;;;8.30;96.10;;;;;;5097803;28;20028;-72
2022/05/28 05:02:06;;;;;;;11.93;2.72;;;8.30;96.10;;;;;;5105527;28;20253;-72
2022/05/28 05:04:32;;;;;;;14.73;2.58;;;8.30;96.20;;;;;;5107625;28;20024;-72
2022/05/28 05:06:58;;;;;;;11.07;2.78;;;8.30;96.30;;;;;;5107683;28;20423;-72
2022/05/28 05:09:23;;;;;;;11.82;2.95;;;8.30;96.20;;;;;;5105783;28;20470;-72
2022/05/28 05:11:49;;;;;;;15.30;2.78;;;8.30;96.30;;;;;;5099358;28;20406;-72
2022/05/28 05:14:14;;;;;;;14.05;2.20;;;8.50;96.20;;;;;;5104176;28;20039;-72
2022/05/28 05:16:40;;;;;;;11.80;1.88;;;8.50;96.10;;;;;;5094833;28;20118;-72
2022/05/28 05:19:05;;;;;;;12.82;2.55;;;8.60;96.00;;;;;;5101463;28;20039;-72
2022/05/28 05:21:31;;;;;;;13.45;3.08;;;8.60;95.70;;;;;;5107738;28;20028;-73
2022/05/28 05:23:56;;;;;;;12.23;2.17;;;8.70;95.70;;;;;;5107386;28;20473;-72
2022/05/28 05:26:22;;;;;;;16.67;2.90;;;8.80;95.50;;;;;;5104781;28;20608;-71
2022/05/28 05:28:48;;;;;;;12.60;2.60;;;8.90;95.50;;;;;;5107256;28;20076;-76
2022/05/28 05:31:14;;;;;;;18.48;3.13;;;9.00;95.10;;;;;;5105225;28;20490;-74
2022/05/28 05:33:40;;;;;;;14.95;2.97;;;9.10;95.20;;;;;;5102546;27;20031;-74
2022/05/28 05:36:06;;;;;;;16.17;2.70;;;9.30;95.20;;;;;;5107720;28;20032;-75
2022/05/28 05:38:32;;;;;;;12.20;2.85;;;9.40;94.70;;;;;;5107561;28;20056;-74
2022/05/28 05:40:57;;;;;;;14.63;3.08;;;9.50;94.40;;;;;;5107339;28;20027;-75
2022/05/28 05:43:23;;;;;;;14.23;3.65;;;9.50;94.10;;;;;;5104926;28;20047;-74
2022/05/28 05:46:00;;;;;;;11.43;2.35;;;9.50;93.90;;;;;;5102001;28;20196;-74
2022/05/28 05:48:27;;;;;;;15.23;2.60;;;9.60;94.20;;;;;;5102249;28;20402;-74
2022/05/28 05:50:52;;;;;;;16.95;2.50;;;9.70;94.20;;;;;;5105622;28;20027;-74
2022/05/28 05:53:19;;;;;;;17.75;3.20;;;9.70;94.00;;;;;;5107124;28;20054;-74
2022/05/28 05:55:45;;;;;;;8.00;2.30;;;9.70;93.60;;;;;;5106294;28;20024;-74
2022/05/28 05:58:11;;;;;;;14.15;2.75;;;9.70;93.50;;;;;;5105776;28;20076;-74
2022/05/28 06:00:37;;;;;;;16.60;2.90;;;9.70;93.40;;;;;;5101414;28;20036;-74
2022/05/28 06:03:03;;;;;;;11.50;3.17;;;9.80;93.60;;;;;;5104736;28;20038;-74
2022/05/28 06:05:28;;;;;;;16.23;2.75;;;9.80;93.30;;;;;;5106689;28;20115;-74
2022/05/28 06:07:54;;;;;;;11.38;2.53;;;9.90;93.10;;;;;;5093528;28;20334;-74
2022/05/28 06:10:19;;;;;;;18.75;3.17;;;10.00;93.10;;;;;;5102520;28;20028;-74
2022/05/28 06:12:45;;;;;;;13.20;3.00;;;10.10;92.50;;;;;;5106167;28;20131;-74
2022/05/28 06:15:12;;;;;;;21.90;3.17;;;10.20;92.10;;;;;;5103644;28;20039;-74
2022/05/28 06:17:37;;;;;;;13.13;2.55;;;10.40;92.10;;;;;;5103559;28;20351;-74
2022/05/28 06:20:05;;;;;;;10.25;2.25;;;10.40;91.10;;;;;;5105566;28;20060;-74
2022/05/28 06:22:31;;;;;;;19.85;2.88;;;10.30;90.70;;;;;;5107194;28;20038;-74
2022/05/28 06:24:56;;;;;;;7.82;2.42;;;10.40;90.20;;;;;;5091423;28;20036;-74
2022/05/28 06:27:22;;;;;;;14.10;3.10;;;10.50;89.90;;;;;;5105784;28;20391;-74
2022/05/28 06:29:47;;;;;;;18.85;2.58;;;10.90;90.10;;;;;;5106914;28;20036;-74
2022/05/28 06:32:13;;;;;;;13.23;2.45;;;10.70;89.70;;;;;;5103265;28;20030;-74
2022/05/28 06:34:38;;;;;;;12.63;1.92;;;10.60;90.30;;;;;;5100932;28;20035;-74
2022/05/28 06:37:08;;;;;;;11.60;2.80;;;10.50;90.10;;;;;;5104593;28;20020;-74
2022/05/28 06:39:35;;;;;;;15.77;2.85;;;10.70;90.10;;;;;;5105851;28;20035;-74
2022/05/28 06:42:01;;;;;;;9.30;2.15;;;10.80;89.90;;;;;;5104826;28;20047;-74
2022/05/28 06:44:27;;;;;;;9.05;2.25;;;10.80;88.60;;;;;;5106706;28;20449;-74
2022/05/28 06:46:53;;;;;;;9.63;2.70;;;10.80;88.40;;;;;;5104987;28;20510;-74
2022/05/28 06:49:18;;;;;;;10.50;2.58;;;10.90;88.10;;;;;;5095262;28;20042;-73
2022/05/28 06:51:44;;;;;;;10.35;1.92;;;10.90;87.40;;;;;;5096045;28;20024;-74
2022/05/28 06:54:10;;;;;;;11.38;2.15;;;10.90;86.50;;;;;;5096584;28;20036;-74
2022/05/28 06:56:35;;;;;;;10.52;2.00;;;11.00;87.00;;;;;;5104079;28;20031;-74
2022/05/28 06:59:01;;;;;;;11.52;2.42;;;11.10;86.40;;;;;;5095172;28;20027;-74
2022/05/28 07:01:26;;;;;;;7.07;2.13;;;11.10;86.70;;;;;;5104796;28;20031;-74
2022/05/28 07:03:52;;;;;;;6.40;1.98;;;11.20;85.90;;;;;;5101051;28;20089;-74
2022/05/28 07:06:17;;;;;;;11.95;1.98;;;11.30;85.80;;;;;;5098593;28;20047;-74
2022/05/28 07:08:43;;;;;;;10.48;2.13;;;11.50;84.30;;;;;;5104912;28;20035;-74
2022/05/28 07:11:10;;;;;;;10.77;1.88;;;11.50;84.00;;;;;;5103261;28;20046;-74
2022/05/28 07:13:37;;;;;;;10.35;2.28;;;11.80;82.90;;;;;;5103331;28;20478;-75
2022/05/28 07:16:05;;;;;;;9.82;1.92;;;12.00;83.00;;;;;;5099310;28;20028;-74
2022/05/28 07:18:31;;;;;;;10.30;2.05;;;11.80;83.40;;;;;;5104663;28;20084;-74
2022/05/28 07:20:57;;;;;;;14.02;2.50;;;11.60;84.20;;;;;;5104793;28;20032;-74
2022/05/28 07:23:25;;;;;;;13.27;2.38;;;11.40;86.70;;;;;;5102380;28;20169;-74
2022/05/28 07:26:05;;;;;;;10.05;1.98;;;11.10;87.10;;;;;;5101377;28;20035;-74
2022/05/28 07:28:33;;;;;;;6.72;1.60;;;10.90;87.20;;;;;;5110138;28;20123;-74
2022/05/28 07:31:07;;;;;;;7.07;1.75;;;10.90;87.80;;;;;;5107484;28;20031;-74
2022/05/28 07:33:35;;;;;;;6.13;1.70;;;11.10;86.50;;;;;;5104037;27;20432;-74
2022/05/28 07:36:03;;;;;;;11.95;2.13;;;11.40;85.60;;;;;;5104991;28;20027;-73
2022/05/28 07:38:31;;;;;;;12.45;2.50;;;11.10;87.40;;;;;;5109198;28;20389;-73
2022/05/28 07:41:00;;;;;;;6.95;1.50;;;11.00;88.00;;;;;;5104546;28;20028;-73
2022/05/28 07:43:25;;;;;;;6.50;1.80;;;10.70;88.30;;;;;;5109713;28;20056;-74
2022/05/28 07:45:51;;;;;;;11.57;1.88;;;10.60;88.70;;;;;;5105893;28;20305;-74
2022/05/28 07:48:16;;;;;;;8.07;1.50;;;10.70;87.70;;;;;;5101414;28;20412;-73
2022/05/28 07:50:43;;;;;;;8.70;1.45;;;10.70;87.90;;;;;;5107638;28;20031;-74
2022/05/28 07:53:09;;;;;;;6.90;1.50;;;10.60;87.60;;;;;;5109208;28;20030;-74
2022/05/28 07:55:35;;;;;;;7.13;2.28;;;10.50;88.40;;;;;;5106369;28;20036;-74
2022/05/28 07:58:10;;;;;;;6.97;1.88;;;10.60;88.40;;;;;;5101354;28;20113;-74
2022/05/28 08:00:41;;;;;;;6.55;1.55;;;10.70;88.60;;;;;;5109873;28;20019;-74
2022/05/28 08:03:07;;;;;;;9.57;1.95;;;10.80;88.90;;;;;;5107815;28;20032;-74
2022/05/28 08:05:32;;;;;;;6.28;1.40;;;10.70;87.90;;;;;;5103008;28;20506;-73
2022/05/28 08:07:58;;;;;;;3.92;1.20;;;10.90;87.60;;;;;;5105264;27;20061;-73
2022/05/28 08:10:24;;;;;;;8.73;1.40;;;11.30;86.50;;;;;;5108246;28;20044;-73
2022/05/28 08:12:49;;;;;;;5.85;2.05;;;11.80;85.90;;;;;;5109257;28;20034;-74
2022/05/28 08:15:15;;;;;;;8.85;2.03;;;12.00;86.30;;;;;;5099268;28;20154;-74
2022/05/28 08:17:41;;;;;;;7.70;2.08;;;11.60;84.70;;;;;;5106010;28;20518;-73
2022/05/28 08:20:07;;;;;;;9.15;1.83;;;11.50;85.20;;;;;;5106186;28;20055;-73
2022/05/28 08:25:17;;;;;;;6.70;1.90;;;11.40;85.80;;;;;;5094571;28;20089;-74
2022/05/28 08:27:43;;;;;;;7.18;1.83;;;11.40;86.10;;;;;;5103206;28;20491;-74
2022/05/28 08:30:09;;;;;;;9.00;1.90;;;11.20;85.60;;;;;;5109138;28;20529;-74
2022/05/28 08:32:34;;;;;;;7.05;1.73;;;11.00;85.10;;;;;;5103910;28;20490;-74
2022/05/28 08:35:00;;;;;;;9.57;1.58;;;10.90;85.00;;;;;;5113445;27;20051;-74
2022/05/28 08:37:26;;;;;;;13.57;2.67;;;10.80;86.60;;;;;;5107576;28;20390;-74
2022/05/28 08:39:51;;;;;;;7.00;1.58;;;10.70;87.10;;;;;;5099267;28;20535;-75
2022/05/28 08:42:21;;;;;;;5.32;1.73;;;10.40;87.40;;;;;;5105692;28;20502;-74
2022/05/28 08:44:49;;;;;;;6.30;1.40;;;10.30;88.90;;;;;;5108193;28;20031;-73
2022/05/28 08:47:26;;;;;;;5.50;1.63;;;10.10;89.20;;;;;;5108250;28;20031;-74
2022/05/28 08:49:53;;;;;;;6.05;1.65;;;10.10;89.70;;;;;;5101450;28;20031;-74
2022/05/28 08:52:25;;;;;;;4.07;1.23;;;10.00;89.80;;;;;;5108170;28;20500;-73
2022/05/28 08:54:58;;;;;;;8.32;2.10;;;9.80;89.20;;;;;;5102990;28;20032;-74
2022/05/28 08:57:37;;;;;;;5.22;1.42;;;9.60;90.50;;;;;;5107361;28;20019;-74
2022/05/28 09:00:28;;;;;;;4.82;1.40;;;9.60;91.50;;;;;;5108337;28;20284;-74
2022/05/28 09:02:56;;;;;;;;;;;9.70;91.40;;;;;;5100719;28;20076;-74
2022/05/28 09:05:26;;;;;;;3.53;1.33;;;9.80;89.20;;;;;;5103934;28;20547;-74
2022/05/28 09:07:56;;;;;;;11.35;1.70;;;10.00;88.50;;;;;;5101968;28;20070;-74
2022/05/28 09:10:21;;;;;;;9.77;1.70;;;10.30;89.00;;;;;;5106727;28;20576;-74
2022/05/28 09:12:58;;;;;;;8.90;2.00;;;10.40;88.50;;;;;;5107400;28;20032;-74
2022/05/28 09:15:24;;;;;;;9.93;2.05;;;10.40;87.40;;;;;;5095716;28;20486;-74
2022/05/28 09:17:52;;;;;;;10.18;1.83;;;10.50;87.80;;;;;;5105863;28;20031;-74
2022/05/28 09:20:22;;;;;;;10.38;1.92;;;10.60;87.90;;;;;;5108158;28;20027;-74
2022/05/28 09:22:49;;;;;;;10.03;2.10;;;10.60;86.40;;;;;;5102624;28;20354;-74
2022/05/28 09:25:21;;;;;;;12.60;2.30;;;10.80;84.90;;;;;;5089562;28;20047;-73
2022/05/28 09:28:04;;;;;;;7.03;1.92;;;11.10;84.30;;;;;;5102902;28;20030;-74
2022/05/28 09:30:55;;;;;;;13.45;2.30;;;11.20;84.60;;;;;;5104461;28;20190;-74
2022/05/28 09:33:24;;;;;;;;;;;11.90;83.90;;;;;;5086904;27;20487;-74
2022/05/28 09:36:26;;;;;;;11.30;2.40;;;12.30;83.90;;;;;;5088158;28;20378;-73
2022/05/28 09:39:18;;;;;;;15.15;2.70;;;12.70;82.10;;;;;;5086626;28;20418;-74
2022/05/28 09:41:52;;;;;;;12.10;2.53;;;12.60;81.70;;;;;;5095933;28;20092;-74
2022/05/28 09:44:39;;;;;;;10.60;2.25;;;12.30;80.60;;;;;;5105529;28;20035;-74
2022/05/28 09:47:13;;;;;;;7.85;2.10;;;12.30;79.90;;;;;;5102292;28;20316;-74
2022/05/28 09:49:55;;;;;;;10.23;2.47;;;12.30;81.20;;;;;;5103528;28;20394;-74
2022/05/28 09:52:34;;;;;;;9.77;1.77;;;12.60;81.20;;;;;;5106978;28;20071;-74
2022/05/28 09:55:17;;;;;;;11.23;2.10;;;13.10;80.10;;;;;;5100935;28;20035;-73
2022/05/28 09:57:59;;;;;;;7.05;1.83;;;13.20;78.90;;;;;;5096251;28;20107;-74
2022/05/28 10:00:24;;;;;;;14.55;2.45;;;13.50;76.50;;;;;;5107274;28;20023;-74
2022/05/28 10:06:03;;;;;;;11.95;1.95;;;13.30;74.20;;;;;;5100049;28;20062;-74
2022/05/28 10:08:31;;;;;;;10.35;2.40;;;13.00;75.70;;;;;;5106144;28;20054;-74
2022/05/28 10:11:01;;;;;;;8.50;1.65;;;12.60;78.70;;;;;;5101907;28;20513;-74
2022/05/28 10:13:28;;;;;;;15.65;2.00;;;12.00;79.00;;;;;;5103388;28;20105;-73
2022/05/28 10:15:59;;;;;;;11.10;2.25;;;11.60;78.40;;;;;;5098977;28;20183;-74
2022/05/28 10:18:34;;;;;;;15.02;2.13;;;11.50;80.80;;;;;;5104708;28;20046;-73
2022/05/28 10:21:14;;;;;;;12.32;2.35;;;11.50;83.90;;;;;;5104994;28;20379;-74
2022/05/28 10:23:42;;;;;;;10.70;2.45;;;11.10;85.90;;;;;;5099558;28;20439;-74
2022/05/28 10:26:29;;;;;;;8.25;2.33;;;11.00;87.10;;;;;;5100007;28;20140;-74
2022/05/28 10:29:01;;;;;;;10.48;1.75;;;10.90;86.70;;;;;;5096243;28;20471;-74
2022/05/28 10:31:32;;;;;;;11.07;2.03;;;10.80;85.50;;;;;;5105574;28;20114;-73
2022/05/28 10:33:58;;;;;;;;;;;11.00;85.70;;;;;;5106588;27;20111;-74
2022/05/28 10:36:27;;;;;;;7.00;1.67;;;11.20;84.10;;;;;;5105508;28;20624;-74
2022/05/28 10:39:08;;;;;;;10.48;1.77;;;11.40;83.90;;;;;;5102347;28;20031;-74
2022/05/28 10:41:35;;;;;;;10.40;1.88;;;11.60;82.20;;;;;;5103332;28;20043;-74
2022/05/28 10:44:01;;;;;;;12.38;2.65;;;12.30;80.90;;;;;;5105128;28;20035;-74
2022/05/28 10:46:36;;;;;;;9.25;2.08;;;12.80;79.00;;;;;;5106676;28;20059;-73
2022/05/28 10:49:35;;;;;;;9.38;2.17;;;12.90;79.50;;;;;;5092459;28;20027;-74
2022/05/28 10:52:09;;;;;;;11.15;2.20;;;12.70;81.20;;;;;;5105116;28;20061;-74
2022/05/28 10:54:49;;;;;;;8.00;2.40;;;12.20;84.50;;;;;;5104876;28;20030;-74
2022/05/28 10:57:33;;;;;;;8.18;2.13;;;11.70;86.00;;;;;;5104019;28;20027;-74
2022/05/28 11:00:13;;;;;;;10.85;1.83;;;12.20;86.00;;;;;;5101409;28;20467;-74
2022/05/28 11:03:07;;;;;;;11.80;2.55;;;13.00;85.80;;;;;;5105240;28;20031;-74
2022/05/28 11:06:09;;;;;;;9.75;1.65;;;13.40;81.50;;;;;;5094409;28;20172;-74
2022/05/28 11:08:45;;;;;;;10.63;1.60;;;14.00;77.70;;;;;;5105545;28;20355;-74
2022/05/28 11:11:37;;;;;;;9.75;2.15;;;13.40;75.70;;;;;;5098949;28;20039;-74
2022/05/28 11:14:10;;;;;;;16.30;2.67;;;13.10;76.90;;;;;;5093583;28;20088;-74
2022/05/28 11:17:01;;;;;;;9.25;1.88;;;12.60;77.20;;;;;;5103776;28;20063;-73
2022/05/28 11:20:00;;;;;;;9.50;2.20;;;11.80;80.60;;;;;;5096031;28;20031;-73
2022/05/28 11:22:42;;;;;;;10.85;1.60;;;11.60;80.70;;;;;;5093645;28;20286;-73
2022/05/28 11:25:39;;;;;;;11.55;2.38;;;11.80;80.30;;;;;;5101529;28;20073;-73
2022/05/28 11:28:33;;;;;;;6.85;1.65;;;11.90;79.30;;;;;;5090555;28;20506;-73
2022/05/28 11:31:09;;;;;;;4.53;1.55;;;11.40;80.90;;;;;;5097611;28;20707;-73
2022/05/28 11:33:39;;;;;;;6.00;1.23;;;11.30;83.40;;;;;;5106238;28;20379;-73
2022/05/28 11:36:30;;;;;;;7.95;1.55;;;11.00;85.40;;;;;;5108029;27;20506;-74
2022/05/28 11:39:15;;;;;;;;;;;10.80;87.50;;;;;;5089329;28;20040;-73
2022/05/28 11:41:51;;;;;;;5.55;1.45;;;10.50;87.70;;;;;;5092399;28;20272;-73
2022/05/28 11:44:35;;;;;;;6.45;1.27;;;10.30;88.10;;;;;;5105073;28;20458;-73
2022/05/28 11:47:09;;;;;;;6.97;1.92;;;10.40;88.80;;;;;;5095402;28;20542;-73
2022/05/28 11:52:39;;;;;;;9.18;1.83;;;10.90;87.70;;;;;;5099372;28;20200;-73
2022/05/28 11:55:18;;;;;;;9.95;2.03;;;10.90;86.40;;;;;;5100675;28;20032;-74
2022/05/28 11:58:07;;;;;;;16.90;4.47;;;10.90;86.80;;;;;;5092769;28;20124;-73
2022/05/28 12:00:36;;;;;;;20.27;7.18;;;10.90;85.90;;;;;;5105176;28;20019;-73
2022/05/28 12:03:11;;;;;;;13.73;2.60;;;11.10;86.70;;;;;;5099873;28;20413;-74
2022/05/28 12:05:44;;;;;;;10.45;2.10;;;11.00;84.50;;;;;;5088814;28;20394;-73
2022/05/28 12:08:27;;;;;;;11.45;2.90;;;11.10;84.20;;;;;;5100478;28;20502;-74
2022/05/28 12:11:04;;;;;;;9.00;2.08;;;11.30;83.40;;;;;;5105492;28;20080;-73
2022/05/28 12:13:45;;;;;;;20.55;8.82;;;12.00;81.20;;;;;;5095707;28;20031;-74
2022/05/28 12:16:31;;;;;;;12.77;2.58;;;12.40;81.40;;;;;;5107720;28;20027;-74
2022/05/28 12:19:01;;;;;;;10.65;2.00;;;13.20;79.40;;;;;;5108370;28;20115;-74
2022/05/28 12:21:32;;;;;;;8.07;2.13;;;13.80;76.90;;;;;;5107213;28;20043;-74
2022/05/28 12:24:24;;;;;;;8.05;2.15;;;13.90;72.90;;;;;;5106266;28;20580;-74
2022/05/28 12:29:47;;;;;;;9.35;2.28;;;14.50;67.10;;;;;;5108144;28;20035;-74
2022/05/28 12:32:19;;;;;;;7.78;1.73;;;13.80;69.70;;;;;;5106902;28;20557;-74
2022/05/28 12:35:20;;;;;;;8.82;1.83;;;13.80;69.50;;;;;;5102612;27;20430;-74
2022/05/28 12:38:01;;;;;;;6.97;1.63;;;13.50;70.80;;;;;;5102725;28;20031;-74
2022/05/28 12:40:30;;;;;;;8.55;1.73;;;13.10;72.90;;;;;;5106792;28;20038;-74
2022/05/28 12:43:11;;;;;;;8.90;1.88;;;13.00;71.50;;;;;;5108848;28;20055;-74
2022/05/28 12:45:39;;;;;;;7.00;1.55;;;12.70;70.90;;;;;;5095494;28;20127;-73
2022/05/28 12:48:31;;;;;;;6.93;1.85;;;12.60;70.70;;;;;;5101921;28;20035;-74
2022/05/28 12:50:59;;;;;;;;;;;12.40;72.90;;;;;;5106873;28;20326;-73
2022/05/28 12:53:26;;;;;;;5.50;1.13;;;12.10;74.60;;;;;;5104201;28;19954;-73
2022/05/28 12:56:07;;;;;;;6.75;1.88;;;12.00;74.80;;;;;;5092819;28;20032;-73
2022/05/28 12:58:36;;;;;;;8.27;1.83;;;12.00;73.80;;;;;;5107645;28;20023;-75
2022/05/28 13:01:05;;;;;;;9.02;1.50;;;12.10;72.60;;;;;;5108404;28;20040;-74
2022/05/28 13:03:40;;;;;;;8.18;2.08;;;12.60;71.50;;;;;;5101167;28;20514;-74
2022/05/28 13:06:10;;;;;;;13.40;2.10;;;12.90;69.90;;;;;;5096115;28;20040;-74
2022/05/28 13:08:45;;;;;;;15.57;2.55;;;13.50;69.80;;;;;;5094480;28;20023;-75
2022/05/28 13:11:30;;;;;;;11.27;2.08;;;14.00;69.00;;;;;;5107171;28;20371;-74
2022/05/28 13:14:15;;;;;;;5.78;1.05;;;13.60;67.10;;;;;;5108260;28;20111;-74
2022/05/28 13:16:59;;;;;;;5.72;1.38;;;13.20;67.20;;;;;;5106673;28;20028;-74
2022/05/28 13:19:59;;;;;;;7.43;1.80;;;13.10;68.30;;;;;;5102765;28;20027;-74